Airfield :
LOGIN :

Register | Disclaimer

   EN    FR    IT 

 










Legend :    VFR   Marginal VFR   IFR   Intensive IFR   Very Intensive IFR
Visi :
Ceiling :
>= 8 km
>= 3000ft
5 to 8 km
1000 to 3000 ft
1500m to 5 km
500 to 1000 ft
800 to 1500m
200 to 500 ft
< 800m
< 200 ft
Symbols :   Thunderstorms  Fog  Heavy snow  Heavy precipitations  Wind > 20 kt
SIGMETs :     Misc.  Thunderstorms  Icing  Turbulence  Mountain Waves  Volcanic Ashes







- Airport Elevation : 126 ft
- IATA code : TIA


LATI - Rinas Mother Teresa Arpt - Tirana

CURRENT METAR :
  • 201550Z 29006KT 260V330 9999 FEW030 28/20 Q1012 NOSIG

EXPIRED METARs :
  • 201520Z 30008KT 270V330 9999 FEW030TCU 28/20 Q1012 NOSIG
  • 201450Z 31006KT 270V360 9999 FEW035TCU 28/19 Q1012 NOSIG
  • 201420Z 31007KT 250V340 9999 FEW040TCU 28/19 Q1012 NOSIG
  • 201350Z 32008KT 270V350 9999 FEW040TCU 29/19 Q1012 NOSIG
  • 201320Z 30008KT 9999 FEW040TCU 30/17 Q1012 NOSIG

TAF TAF LATI
Valid from the 20 at 12:00 until the 21 at 12:00 UTC


201100Z 2012/2112 34012KT 9999 FEW040CB TX33/2112Z TN20/2104Z
BECMG 2017/2019 VRB04KT CAVOK
No reported NOTAMs for that airfield.



MET'MAP, your aeronautical weather chart ! - Copyright ORBIFLY December 2007 - Disclaimer

ORBIFLY MET'MAP TEAM :

Programming & Development : Alexandra Zaïnal
Concept & Development : Baudouin d'Aumeries
Co-Development & Prog : Marc-Olivier Méhu
Technical & hardware support : Manuel Goepfert

Contact : metmap@orbifly.com




SOURCES & CREDITS :

   NOAA